Time;durP1;ratioP1;P1;durP2;ratioP2;P2;SDS_P1;SDS_P2;PMS_P1;PMS_P2;Temp;Humidity;BMP_temperature;BMP_pressure;BME280_temperature;BME280_humidity;BME280_pressure;Samples;Min_cycle;Max_cycle;Signal;HPM_P1;HPM_P2
2023/06/18 00:01:49;;;;;;;;;23.00;21.00;;;;;29.43;34.62;100754.69;5050247;28;45380;-47
2023/06/18 00:04:15;;;;;;;;;19.33;19.33;;;;;29.44;34.29;100756.38;5037290;28;58204;-46
2023/06/18 00:06:40;;;;;;;;;21.00;19.33;;;;;29.44;33.90;100748.16;5043253;28;66287;-46
2023/06/18 00:09:05;;;;;;;;;22.00;22.00;;;;;29.45;33.86;100754.47;5057016;28;66564;-45
2023/06/18 00:11:31;;;;;;;;;16.67;16.67;;;;;29.41;34.56;100745.81;5060446;28;45174;-47
2023/06/18 00:13:56;;;;;;;;;20.67;18.33;;;;;29.40;34.40;100748.75;5055253;28;62898;-46
2023/06/18 00:16:21;;;;;;;;;21.67;20.00;;;;;29.37;34.21;100739.91;5050311;28;67526;-46
2023/06/18 00:18:47;;;;;;;;;19.00;18.33;;;;;29.31;34.60;100737.97;5047590;28;68512;-46
2023/06/18 00:21:13;;;;;;;;;22.00;22.00;;;;;29.29;35.21;100739.22;5055195;28;61125;-46
2023/06/18 00:23:38;;;;;;;;;26.67;23.00;;;;;29.27;34.67;100738.56;5056110;28;45617;-45
2023/06/18 00:26:03;;;;;;;;;17.67;17.67;;;;;29.27;34.76;100735.84;5058835;28;45511;-46
2023/06/18 00:28:29;;;;;;;;;22.00;22.00;;;;;29.28;34.43;100743.00;5050033;28;46159;-47
2023/06/18 00:30:55;;;;;;;;;19.67;15.00;;;;;29.24;34.81;100745.25;5050180;28;65899;-46
2023/06/18 00:33:20;;;;;;;;;19.00;19.00;;;;;29.19;34.53;100745.88;5059598;28;45539;-47
2023/06/18 00:35:46;;;;;;;;;21.33;18.00;;;;;29.15;34.54;100743.75;5040262;28;45427;-46
2023/06/18 00:38:11;;;;;;;;;20.00;19.00;;;;;29.15;34.60;100744.59;5044929;28;48099;-48
2023/06/18 00:40:36;;;;;;;;;23.00;21.00;;;;;29.13;34.70;100740.38;5060087;28;45457;-46
2023/06/18 00:43:03;;;;;;;;;23.00;21.00;;;;;29.10;34.46;100749.84;5059315;28;46139;-45
2023/06/18 00:45:29;;;;;;;;;20.67;19.00;;;;;29.05;34.89;100755.91;5053815;28;45517;-46
2023/06/18 00:47:54;;;;;;;;;24.67;19.33;;;;;29.00;34.87;100755.66;5050649;28;45413;-45
2023/06/18 00:50:21;;;;;;;;;20.00;19.33;;;;;28.92;34.92;100760.44;5053215;28;45417;-47
2023/06/18 00:52:47;;;;;;;;;17.33;17.33;;;;;28.91;34.76;100772.44;5046778;28;45920;-48
2023/06/18 00:55:16;;;;;;;;;16.00;13.00;;;;;28.84;34.99;100770.47;5049312;28;45456;-46
2023/06/18 00:57:49;;;;;;;;;18.33;18.33;;;;;28.81;35.48;100773.63;5058356;28;46233;-46
2023/06/18 01:00:16;;;;;;;;;20.00;18.00;;;;;28.82;35.30;100774.47;5054077;28;45438;-46
2023/06/18 01:02:45;;;;;;;;;23.33;20.33;;;;;28.80;36.19;100779.28;5050904;28;45436;-48
2023/06/18 01:05:13;;;;;;;;;23.67;21.33;;;;;28.67;36.71;100789.06;5056200;28;45529;-47
2023/06/18 01:07:39;;;;;;;;;26.67;22.33;;;;;28.67;37.11;100790.97;5056577;28;47485;-47
2023/06/18 01:10:05;;;;;;;;;25.33;24.67;;;;;28.61;37.91;100797.19;5038582;28;45553;-45
2023/06/18 01:12:31;;;;;;;;;21.00;21.00;;;;;28.47;39.25;100818.09;5053064;28;45419;-47
2023/06/18 01:14:57;;;;;;;;;23.33;21.67;;;;;28.13;40.87;100800.47;5036413;28;45460;-46
2023/06/18 01:17:23;;;;;;;;;24.00;24.00;;;;;27.84;41.85;100802.19;5050782;28;46042;-47
2023/06/18 01:19:56;;;;;;;;;22.67;22.67;;;;;27.77;43.45;100806.72;5036842;28;45678;-48
2023/06/18 01:22:29;;;;;;;;;23.33;22.00;;;;;27.77;42.66;100806.72;5049689;28;45437;-46
2023/06/18 01:24:57;;;;;;;;;26.67;25.67;;;;;27.81;43.43;100803.44;5036450;28;45485;-49
2023/06/18 01:27:27;;;;;;;;;24.00;21.33;;;;;27.83;43.11;100812.25;5055493;28;45596;-47
2023/06/18 01:29:54;;;;;;;;;24.00;24.00;;;;;27.81;43.72;100810.75;5036483;28;45826;-46
2023/06/18 01:32:20;;;;;;;;;20.67;19.67;;;;;27.77;44.32;100807.59;5043089;28;45648;-47
2023/06/18 01:34:45;;;;;;;;;27.00;24.33;;;;;27.70;43.03;100796.56;5044344;28;45632;-46
2023/06/18 01:37:14;;;;;;;;;23.00;23.00;;;;;27.66;44.47;100794.41;5049721;28;45994;-46
2023/06/18 01:40:24;;;;;;;;;26.00;23.33;;;;;27.70;45.03;100785.66;5048751;28;45343;-47
2023/06/18 01:42:55;;;;;;;;;26.67;26.00;;;;;27.79;45.29;100783.63;4979525;28;45375;-46
2023/06/18 01:45:33;;;;;;;;;24.00;24.00;;;;;27.79;45.54;100777.34;5049143;28;45452;-46
2023/06/18 01:48:04;;;;;;;;;25.00;24.67;;;;;27.67;47.66;100787.91;5043231;28;46097;-47
2023/06/18 01:50:33;;;;;;;;;23.00;22.00;;;;;27.56;46.67;100776.41;5056462;28;45439;-46
2023/06/18 01:52:59;;;;;;;;;26.00;24.33;;;;;27.66;47.17;100778.00;5028859;28;45472;-46
2023/06/18 01:55:25;;;;;;;;;26.67;24.67;;;;;27.72;47.17;100778.09;5045836;28;57271;-47
2023/06/18 01:57:51;;;;;;;;;28.33;26.00;;;;;27.66;47.05;100781.56;5058289;28;45328;-46
2023/06/18 02:00:17;;;;;;;;;25.00;23.00;;;;;27.61;47.65;100770.38;5037609;28;45364;-45
2023/06/18 02:02:42;;;;;;;;;25.67;21.33;;;;;27.61;47.93;100778.56;5027116;28;45753;-46
2023/06/18 02:05:08;;;;;;;;;26.67;25.00;;;;;27.68;47.31;100773.22;5052507;28;67191;-45
2023/06/18 02:07:33;;;;;;;;;28.33;25.67;;;;;27.74;47.62;100786.09;5058104;28;46542;-47
2023/06/18 02:09:59;;;;;;;;;25.33;24.00;;;;;27.76;47.62;100777.72;5055213;28;45553;-46
2023/06/18 02:12:24;;;;;;;;;24.00;23.67;;;;;27.81;47.40;100784.31;5054147;28;45362;-46
2023/06/18 02:14:49;;;;;;;;;29.33;29.33;;;;;27.83;47.13;100774.00;5042573;28;45441;-46
2023/06/18 02:17:15;;;;;;;;;25.00;24.00;;;;;27.81;47.27;100780.72;5050034;28;45342;-46
2023/06/18 02:19:40;;;;;;;;;25.00;25.00;;;;;27.76;47.56;100777.72;5049973;28;53054;-49
2023/06/18 02:22:06;;;;;;;;;19.00;19.00;;;;;27.70;47.25;100774.72;5029917;28;45679;-46
2023/06/18 02:24:32;;;;;;;;;22.67;21.33;;;;;27.66;47.01;100772.53;5045784;28;52958;-47
2023/06/18 02:26:58;;;;;;;;;21.33;20.00;;;;;27.52;47.41;100758.72;5056680;28;46421;-46
2023/06/18 02:29:23;;;;;;;;;17.00;17.00;;;;;27.40;47.37;100765.69;5057717;28;45311;-49
2023/06/18 02:31:48;;;;;;;;;20.00;19.00;;;;;27.40;47.17;100768.41;5058170;28;45442;-45
2023/06/18 02:34:15;;;;;;;;;22.00;19.00;;;;;27.46;47.19;100775.03;5054234;28;69815;-45
2023/06/18 02:36:40;;;;;;;;;15.67;15.67;;;;;27.46;47.09;100778.59;5048212;28;46430;-45
2023/06/18 02:39:05;;;;;;;;;17.67;16.67;;;;;27.49;46.91;100783.66;5047954;28;45477;-45
2023/06/18 02:41:31;;;;;;;;;12.67;12.67;;;;;27.48;46.49;100784.72;5054081;28;56261;-47
2023/06/18 02:43:56;;;;;;;;;10.67;10.67;;;;;27.46;46.46;100778.59;5047652;28;64251;-46
2023/06/18 02:46:22;;;;;;;;;12.33;12.33;;;;;27.38;45.80;100781.44;5056908;28;45446;-45
2023/06/18 02:48:47;;;;;;;;;12.67;12.67;;;;;27.31;46.26;100774.97;5051502;28;45438;-46
2023/06/18 02:51:13;;;;;;;;;17.00;13.67;;;;;27.31;46.46;100774.97;5051061;28;45271;-46
2023/06/18 02:53:38;;;;;;;;;11.33;11.33;;;;;27.34;46.60;100774.59;5055754;28;61842;-45
2023/06/18 02:56:03;;;;;;;;;10.00;10.00;;;;;27.33;45.58;100783.84;5039139;28;45946;-48
2023/06/18 02:58:29;;;;;;;;;13.67;12.33;;;;;27.27;46.28;100785.41;5038283;28;45478;-45
2023/06/18 03:01:02;;;;;;;;;10.00;10.00;;;;;27.33;46.82;100787.41;5042092;28;45541;-46
2023/06/18 03:03:28;;;;;;;;;12.67;12.33;;;;;27.39;46.96;100796.75;5050626;28;45476;-45
2023/06/18 03:05:53;;;;;;;;;11.00;11.00;;;;;27.48;46.77;100798.38;5062069;28;46257;-47
2023/06/18 03:08:19;;;;;;;;;12.67;12.67;;;;;27.55;46.67;100798.47;5055369;28;45455;-46
2023/06/18 03:10:45;;;;;;;;;11.67;10.00;;;;;27.61;46.76;100796.84;5039362;28;45521;-45
2023/06/18 03:13:11;;;;;;;;;12.00;12.00;;;;;27.61;46.38;100794.94;5054524;28;46405;-45
2023/06/18 03:15:36;;;;;;;;;13.00;12.00;;;;;27.68;46.18;100781.41;5055155;28;45520;-47
2023/06/18 03:18:01;;;;;;;;;10.33;10.33;;;;;27.72;45.81;100780.00;5057137;28;45455;-45
2023/06/18 03:20:27;;;;;;;;;11.00;11.00;;;;;27.73;45.93;100782.53;5034570;28;45486;-45
2023/06/18 03:22:53;;;;;;;;;13.67;11.00;;;;;27.76;45.74;100786.75;5052850;28;45388;-46
2023/06/18 03:25:19;;;;;;;;;17.67;12.00;;;;;27.71;45.90;100781.84;5048190;28;46416;-47
2023/06/18 03:27:47;;;;;;;;;11.67;11.67;;;;;27.69;45.90;100794.00;5049614;28;45490;-45
2023/06/18 03:30:13;;;;;;;;;12.33;11.00;;;;;27.65;45.42;100806.34;5049453;28;45288;-48
2023/06/18 03:32:38;;;;;;;;;13.00;11.33;;;;;27.56;45.80;100805.59;5058588;28;45396;-45
2023/06/18 03:35:04;;;;;;;;;13.00;12.00;;;;;27.48;46.44;100808.44;5049867;28;45443;-45
2023/06/18 03:37:33;;;;;;;;;11.00;11.00;;;;;27.47;46.88;100809.47;5041225;28;45507;-45
2023/06/18 03:39:58;;;;;;;;;6.33;5.33;;;;;27.52;46.65;100812.47;5048403;28;45657;-45
2023/06/18 03:42:24;;;;;;;;;8.33;8.33;;;;;27.54;46.27;100805.78;5037266;28;45549;-44
2023/06/18 03:44:50;;;;;;;;;7.00;7.00;;;;;27.54;46.62;100799.50;5058708;28;45483;-48
2023/06/18 03:47:16;;;;;;;;;11.33;10.67;;;;;27.54;46.29;100788.56;5055168;28;45465;-46
2023/06/18 03:49:41;;;;;;;;;10.00;9.00;;;;;27.54;46.62;100783.94;5044096;28;45391;-45
2023/06/18 03:52:07;;;;;;;;;5.67;5.00;;;;;27.56;45.94;100787.34;5054599;28;64931;-45
2023/06/18 03:54:32;;;;;;;;;5.33;5.33;;;;;27.58;45.69;100781.69;5051161;28;46082;-48
2023/06/18 03:56:58;;;;;;;;;7.67;7.67;;;;;27.51;46.02;100786.22;5054065;28;45406;-44
2023/06/18 03:59:23;;;;;;;;;5.00;5.00;;;;;27.35;46.37;100792.66;5056200;28;45470;-45
2023/06/18 04:01:49;;;;;;;;;6.33;5.33;;;;;27.29;46.07;100785.25;5054806;28;45276;-45
2023/06/18 04:04:15;;;;;;;;;6.00;6.00;;;;;27.29;46.41;100787.97;5055944;28;46182;-46
2023/06/18 04:06:40;;;;;;;;;6.00;6.00;;;;;27.28;46.61;100780.81;5056250;28;45300;-48
2023/06/18 04:09:06;;;;;;;;;5.33;5.33;;;;;27.26;46.57;100781.00;5048682;28;45600;-46
2023/06/18 04:11:31;;;;;;;;;5.33;5.33;;;;;27.15;46.48;100770.53;5056947;28;65301;-48
2023/06/18 04:13:56;;;;;;;;;7.00;5.00;;;;;27.13;47.40;100761.69;5056701;28;64214;-50
2023/06/18 04:16:21;;;;;;;;;6.00;5.33;;;;;27.16;46.78;100764.91;5053234;28;70424;-45
2023/06/18 04:18:47;;;;;;;;;7.67;7.00;;;;;27.17;47.22;100761.13;5045109;28;65596;-46
2023/06/18 04:21:12;;;;;;;;;6.67;6.67;;;;;27.12;46.79;100760.84;5054277;28;61163;-45
2023/06/18 04:23:40;;;;;;;;;7.00;7.00;;;;;27.06;46.79;100764.31;5052195;28;51924;-46
2023/06/18 04:26:05;;;;;;;;;6.00;6.00;;;;;27.01;46.72;100764.03;5052945;28;46029;-45
2023/06/18 04:28:31;;;;;;;;;6.33;6.00;;;;;26.94;46.68;100761.19;5057225;28;65909;-45
2023/06/18 04:30:56;;;;;;;;;6.33;6.33;;;;;26.90;47.00;100763.44;5050207;28;61688;-45
2023/06/18 04:33:21;;;;;;;;;7.67;7.00;;;;;26.88;46.74;100779.16;5052911;28;70808;-52
2023/06/18 04:35:47;;;;;;;;;7.00;7.00;;;;;26.86;47.31;100780.38;5050490;28;45322;-45
2023/06/18 04:38:12;;;;;;;;;5.67;5.67;;;;;26.85;47.28;100784.97;5052082;28;56009;-44
2023/06/18 04:40:37;;;;;;;;;2.33;2.33;;;;;26.83;47.57;100789.78;5046557;28;60872;-47
2023/06/18 04:43:03;;;;;;;;;5.67;5.67;;;;;26.89;47.33;100790.91;5048449;28;73096;-44
2023/06/18 04:45:28;;;;;;;;;7.67;7.67;;;;;27.00;47.50;100797.78;5047185;28;70271;-45
2023/06/18 04:47:54;;;;;;;;;10.00;10.00;;;;;27.04;47.18;100802.72;5042620;28;65295;-49
2023/06/18 04:50:21;;;;;;;;;9.67;8.67;;;;;27.01;47.13;100804.97;5052449;28;45645;-44
2023/06/18 04:52:46;;;;;;;;;14.33;12.00;;;;;27.00;47.61;100814.16;5038014;28;46542;-44
2023/06/18 04:55:11;;;;;;;;;12.67;12.33;;;;;27.01;47.40;100826.78;5058356;28;53230;-45
2023/06/18 04:57:37;;;;;;;;;12.00;9.00;;;;;26.96;47.50;100834.69;5054876;28;53251;-51
2023/06/18 05:00:04;;;;;;;;;11.00;8.00;;;;;26.82;47.40;100820.81;5054127;28;54057;-50
2023/06/18 05:02:30;;;;;;;;;8.33;5.33;;;;;26.73;47.95;100820.03;5051712;28;45514;-45
2023/06/18 05:04:56;;;;;;;;;5.67;5.67;;;;;26.72;48.28;100817.50;5039899;28;46041;-44
2023/06/18 05:07:21;;;;;;;;;7.00;6.00;;;;;26.69;48.46;100810.47;5053090;28;45568;-44
2023/06/18 05:09:47;;;;;;;;;9.00;7.33;;;;;26.74;47.72;100815.44;5059175;28;45332;-45
2023/06/18 05:12:12;;;;;;;;;5.33;5.33;;;;;26.83;48.37;100817.06;5054999;28;56437;-44
2023/06/18 05:14:37;;;;;;;;;8.00;6.67;;;;;26.94;48.03;100817.66;5050990;28;59051;-44
2023/06/18 05:17:03;;;;;;;;;5.67;5.67;;;;;26.99;48.33;100812.50;5053717;28;51706;-44
2023/06/18 05:19:28;;;;;;;;;7.00;7.00;;;;;27.08;47.54;100817.69;5052730;28;45451;-44
2023/06/18 05:21:53;;;;;;;;;4.00;4.00;;;;;27.19;47.64;100805.44;5050971;28;71882;-44
2023/06/18 05:24:19;;;;;;;;;6.33;6.33;;;;;27.28;47.10;100805.38;5053131;28;45362;-45
2023/06/18 05:26:44;;;;;;;;;5.67;5.67;;;;;27.31;47.14;100811.34;5052410;28;45506;-52
2023/06/18 05:29:10;;;;;;;;;6.00;5.67;;;;;27.38;47.37;100806.00;5057614;28;45323;-44
2023/06/18 05:31:35;;;;;;;;;6.00;6.00;;;;;27.45;47.19;100812.38;5054865;28;49331;-47
2023/06/18 05:34:00;;;;;;;;;10.67;6.33;;;;;27.48;46.99;100809.31;5050265;28;65845;-45
2023/06/18 05:36:26;;;;;;;;;6.67;6.67;;;;;27.53;47.06;100809.59;5039690;28;45782;-44
2023/06/18 05:38:53;;;;;;;;;5.67;5.67;;;;;27.57;46.65;100801.84;5048048;28;45766;-46
2023/06/18 05:41:18;;;;;;;;;6.33;6.33;;;;;27.62;47.05;100810.31;5055963;28;46138;-44
2023/06/18 05:43:44;;;;;;;;;6.00;6.00;;;;;27.67;46.47;100812.50;5052074;28;45615;-51
2023/06/18 05:46:09;;;;;;;;;5.67;4.67;;;;;27.70;46.61;100812.09;5053042;28;46723;-46
2023/06/18 05:48:35;;;;;;;;;7.00;5.33;;;;;27.71;46.57;100806.44;5051333;28;45471;-46
2023/06/18 05:51:00;;;;;;;;;5.00;4.67;;;;;27.73;46.58;100817.19;5042135;28;46199;-46
2023/06/18 05:53:26;;;;;;;;;5.00;4.67;;;;;27.74;46.90;100807.94;5038922;28;58402;-44
2023/06/18 05:55:51;;;;;;;;;5.67;5.67;;;;;27.74;46.65;100802.47;5052940;28;45357;-45
2023/06/18 05:58:17;;;;;;;;;4.67;4.67;;;;;27.71;46.60;100805.59;5035600;28;45423;-48
2023/06/18 06:00:42;;;;;;;;;6.67;6.67;;;;;27.69;46.64;100811.25;5045250;28;47433;-45
2023/06/18 06:03:08;;;;;;;;;6.00;6.00;;;;;27.64;46.75;100807.38;5058191;28;45371;-48
2023/06/18 06:05:35;;;;;;;;;6.00;6.00;;;;;27.65;46.50;100809.09;5055216;28;45365;-48
2023/06/18 06:08:00;;;;;;;;;8.00;8.00;;;;;27.69;46.99;100811.25;5055862;28;45402;-45
2023/06/18 06:10:26;;;;;;;;;9.67;9.00;;;;;27.67;46.71;100813.31;5043661;28;48035;-47
2023/06/18 06:12:53;;;;;;;;;6.00;4.33;;;;;27.72;46.48;100813.59;5055596;28;45313;-45
2023/06/18 06:15:18;;;;;;;;;8.33;7.33;;;;;27.77;46.65;100813.06;5052521;28;45680;-47
2023/06/18 06:17:44;;;;;;;;;6.00;6.00;;;;;27.79;46.65;100805.50;5053538;28;45430;-46
2023/06/18 06:20:10;;;;;;;;;7.33;7.33;;;;;27.79;47.01;100813.69;5051270;28;56746;-48
2023/06/18 06:22:35;;;;;;;;;7.00;7.00;;;;;27.84;46.96;100810.41;5056293;28;45517;-45
2023/06/18 06:25:00;;;;;;;;;9.00;7.67;;;;;27.87;46.93;100812.75;5054088;28;46016;-49
2023/06/18 06:27:26;;;;;;;;;7.33;6.00;;;;;27.89;46.55;100811.50;5056731;28;65606;-49
2023/06/18 06:29:51;;;;;;;;;8.33;6.00;;;;;27.91;46.47;100816.78;5053656;28;65190;-46
2023/06/18 06:32:17;;;;;;;;;5.00;5.00;;;;;27.91;46.70;100816.78;5052248;28;64473;-47
2023/06/18 06:34:42;;;;;;;;;5.00;5.00;;;;;27.96;46.04;100818.94;5045191;28;45372;-48
2023/06/18 06:37:08;;;;;;;;;7.00;6.00;;;;;27.87;46.16;100820.94;5044536;28;45400;-44
2023/06/18 06:39:33;;;;;;;;;7.00;6.67;;;;;27.86;46.27;100822.84;5051834;28;45467;-48
2023/06/18 06:41:59;;;;;;;;;5.67;5.67;;;;;27.87;46.35;100823.66;5038649;28;45490;-46
2023/06/18 06:44:24;;;;;;;;;6.00;6.00;;;;;27.88;46.36;100825.38;5050319;28;45523;-45
2023/06/18 06:46:49;;;;;;;;;8.00;7.00;;;;;27.89;46.38;100821.59;5050018;28;45579;-44
2023/06/18 06:49:15;;;;;;;;;6.00;6.00;;;;;27.93;46.00;100822.91;5052216;28;72902;-44
2023/06/18 06:51:40;;;;;;;;;5.33;5.33;;;;;27.99;45.98;100821.28;5055641;28;66734;-47
2023/06/18 06:54:05;;;;;;;;;5.67;5.67;;;;;28.02;45.92;100827.25;5035633;28;62897;-46
2023/06/18 06:56:31;;;;;;;;;7.00;6.00;;;;;28.06;45.28;100825.84;5056691;28;45354;-46
2023/06/18 06:58:57;;;;;;;;;5.00;5.00;;;;;27.99;45.73;100822.16;5041075;28;47416;-46
2023/06/18 07:01:23;;;;;;;;;5.67;5.67;;;;;28.00;45.35;100825.72;5055761;28;45661;-45
2023/06/18 07:03:48;;;;;;;;;6.00;6.00;;;;;27.99;45.75;100824.91;5055117;28;45418;-46
2023/06/18 07:06:14;;;;;;;;;7.00;7.00;;;;;27.99;45.67;100821.28;5057276;28;45707;-45
2023/06/18 07:08:39;;;;;;;;;7.67;7.67;;;;;28.01;45.44;100813.75;5056109;28;54257;-47
2023/06/18 07:11:04;;;;;;;;;6.00;6.00;;;;;28.07;45.64;100813.03;5058892;28;45466;-45
2023/06/18 07:13:30;;;;;;;;;4.33;4.00;;;;;28.18;45.35;100812.50;5039709;28;45787;-46
2023/06/18 07:15:55;;;;;;;;;6.00;6.00;;;;;28.43;45.02;100811.31;5059347;28;45754;-45
2023/06/18 07:18:21;;;;;;;;;7.00;7.00;;;;;28.86;44.37;100817.66;5059477;28;45432;-45
2023/06/18 07:20:46;;;;;;;;;8.00;8.00;;;;;29.31;43.78;100813.81;5061493;28;46560;-48
2023/06/18 07:23:11;;;;;;;;;8.00;8.00;;;;;29.49;42.87;100816.03;5050223;28;45478;-46
2023/06/18 07:25:37;;;;;;;;;7.00;7.00;;;;;29.44;42.43;100827.59;5054485;28;45582;-49
2023/06/18 07:28:02;;;;;;;;;10.33;10.33;;;;;29.38;42.92;100822.91;5054084;28;72545;-46
2023/06/18 07:30:28;;;;;;;;;11.00;10.00;;;;;29.25;43.16;100831.00;5065232;28;45437;-47
2023/06/18 07:32:53;;;;;;;;;10.33;10.00;;;;;29.13;43.58;100838.94;5066402;28;55537;-45
2023/06/18 07:35:18;;;;;;;;;11.33;10.00;;;;;28.98;42.89;100837.13;5058890;28;66375;-45
2023/06/18 07:37:44;;;;;;;;;16.33;13.33;;;;;28.87;43.45;100823.97;5059740;28;63742;-47
2023/06/18 07:40:10;;;;;;;;;10.00;10.00;;;;;28.86;43.70;100819.53;5059973;28;45496;-46
2023/06/18 07:42:35;;;;;;;;;11.00;11.00;;;;;28.91;43.46;100819.78;5050365;28;45501;-46
2023/06/18 07:45:01;;;;;;;;;11.67;11.33;;;;;29.00;43.93;100824.06;5044265;28;45298;-47
2023/06/18 07:47:26;;;;;;;;;9.33;8.00;;;;;29.24;43.11;100819.19;5048637;28;55450;-46
2023/06/18 07:49:51;;;;;;;;;13.00;11.00;;;;;29.61;42.93;100824.56;5053475;28;45476;-49
2023/06/18 07:52:17;;;;;;;;;11.67;11.00;;;;;29.94;42.26;100815.66;5054624;28;45843;-48
2023/06/18 07:54:42;;;;;;;;;11.67;11.67;;;;;30.20;41.33;100818.47;5055452;28;45495;-49
2023/06/18 07:57:08;;;;;;;;;8.00;8.00;;;;;30.32;41.52;100821.47;5054026;28;58583;-46
2023/06/18 07:59:33;;;;;;;;;11.00;9.67;;;;;30.30;40.84;100815.38;5054773;28;45371;-45
2023/06/18 08:01:58;;;;;;;;;8.67;8.67;;;;;30.03;40.26;100809.78;5059769;28;59306;-48
2023/06/18 08:04:24;;;;;;;;;6.67;5.00;;;;;29.93;40.83;100805.75;5044162;28;45328;-50
2023/06/18 08:06:50;;;;;;;;;12.67;10.33;;;;;29.91;41.19;100805.09;5055424;28;49960;-47
2023/06/18 08:09:17;;;;;;;;;12.33;11.00;;;;;30.06;41.47;100799.47;5059907;28;45477;-47
2023/06/18 08:11:43;;;;;;;;;10.67;9.33;;;;;30.31;40.95;100797.84;5059766;28;45404;-45
2023/06/18 08:14:08;;;;;;;;;10.33;10.33;;;;;30.62;40.22;100798.34;5054774;28;45375;-45
2023/06/18 08:16:33;;;;;;;;;10.67;10.67;;;;;30.96;40.38;100793.72;5060594;28;46353;-50
2023/06/18 08:18:59;;;;;;;;;11.33;11.33;;;;;31.17;39.64;100793.53;5044671;28;68405;-45
2023/06/18 08:21:25;;;;;;;;;9.33;9.33;;;;;31.26;39.51;100793.28;5060415;28;45317;-44
2023/06/18 08:23:50;;;;;;;;;11.00;11.00;;;;;31.33;39.10;100796.88;5043679;28;46606;-46
2023/06/18 08:26:16;;;;;;;;;11.67;11.00;;;;;31.28;38.57;100794.75;5041795;28;45963;-46
2023/06/18 08:28:41;;;;;;;;;12.00;12.00;;;;;31.17;38.40;100789.91;5059430;28;45272;-47
2023/06/18 08:31:07;;;;;;;;;10.67;10.67;;;;;31.19;39.26;100790.56;5059115;28;53899;-46
2023/06/18 08:33:32;;;;;;;;;12.67;12.67;;;;;31.38;38.76;100786.09;5058186;28;64012;-47
2023/06/18 08:35:57;;;;;;;;;11.67;11.67;;;;;31.52;37.83;100775.88;5046821;28;69913;-52
2023/06/18 08:38:23;;;;;;;;;11.00;10.00;;;;;31.65;37.18;100775.03;5055317;28;58817;-50
2023/06/18 08:40:51;;;;;;;;;10.67;10.67;;;;;31.58;37.61;100777.78;5055794;28;66680;-53
2023/06/18 08:43:21;;;;;;;;;11.33;11.33;;;;;31.33;37.72;100767.50;5059022;28;45748;-51
2023/06/18 08:45:53;;;;;;;;;12.67;12.00;;;;;30.81;38.33;100772.81;5058189;28;46481;-51
2023/06/18 08:48:27;;;;;;;;;12.00;11.67;;;;;30.35;38.56;100768.09;5050058;28;45620;-52
2023/06/18 08:51:03;;;;;;;;;14.67;11.00;;;;;30.01;38.91;100772.66;5059394;28;45325;-51
2023/06/18 08:53:35;;;;;;;;;12.67;12.33;;;;;29.69;39.38;100777.78;5060157;28;45493;-49
2023/06/18 08:56:01;;;;;;;;;12.00;12.00;;;;;29.43;39.83;100773.03;5040680;28;45419;-49
2023/06/18 08:58:26;;;;;;;;;13.00;12.00;;;;;29.23;40.19;100770.13;5050511;28;45344;-53
2023/06/18 09:00:53;;;;;;;;;12.67;12.33;;;;;29.09;39.99;100770.03;5057524;28;45414;-51
2023/06/18 09:03:20;;;;;;;;;13.67;13.67;;;;;29.03;40.43;100766.22;5044028;28;45480;-46
2023/06/18 09:05:45;;;;;;;;;12.67;11.33;;;;;28.98;40.70;100762.38;5052133;28;46378;-46
2023/06/18 09:08:11;;;;;;;;;14.33;14.33;;;;;28.98;40.65;100756.91;5048251;28;45501;-45
2023/06/18 09:10:36;;;;;;;;;14.67;14.67;;;;;29.02;40.52;100758.19;5048251;28;50395;-47
2023/06/18 09:13:02;;;;;;;;;15.00;13.00;;;;;29.12;40.32;100755.94;5036643;28;46052;-45
2023/06/18 09:15:27;;;;;;;;;13.00;13.00;;;;;29.20;40.84;100754.94;5058639;28;48614;-52
2023/06/18 09:17:53;;;;;;;;;13.33;12.00;;;;;29.19;40.46;100756.84;5055420;28;51096;-44
2023/06/18 09:20:20;;;;;;;;;13.33;11.33;;;;;29.13;40.57;100752.16;5051012;28;45368;-46
2023/06/18 09:22:47;;;;;;;;;8.67;8.67;;;;;29.07;40.25;100752.13;5054432;28;46807;-52
2023/06/18 09:25:18;;;;;;;;;11.00;11.00;;;;;28.98;40.62;100744.06;5055831;28;45583;-52
2023/06/18 09:27:44;;;;;;;;;15.00;12.67;;;;;28.95;40.52;100744.44;5056098;28;45591;-51
2023/06/18 09:30:23;;;;;;;;;13.00;10.00;;;;;28.91;41.22;100742.34;5041217;28;45817;-51
2023/06/18 09:32:49;;;;;;;;;12.33;12.33;;;;;28.83;40.57;100746.06;5053496;28;45386;-53
2023/06/18 09:35:18;;;;;;;;;13.00;12.00;;;;;28.79;40.97;100744.78;5042873;28;47911;-51
2023/06/18 09:37:46;;;;;;;;;11.67;11.33;;;;;28.79;40.67;100739.31;5053735;28;45754;-51
2023/06/18 09:40:15;;;;;;;;;9.33;8.33;;;;;28.83;40.77;100741.41;5052226;28;45348;-49
2023/06/18 09:42:42;;;;;;;;;13.33;10.67;;;;;28.90;41.22;100735.16;5057789;28;45940;-48
2023/06/18 09:45:08;;;;;;;;;11.00;10.00;;;;;29.04;40.35;100737.78;5042082;28;46870;-50
2023/06/18 09:47:33;;;;;;;;;11.33;11.33;;;;;29.16;40.50;100740.78;5052619;28;45378;-50
2023/06/18 09:49:58;;;;;;;;;9.67;9.67;;;;;29.29;40.29;100740.06;5051450;28;45376;-53
2023/06/18 09:52:24;;;;;;;;;9.67;9.67;;;;;29.44;40.66;100734.47;5043275;28;45446;-53
2023/06/18 09:54:50;;;;;;;;;13.00;11.33;;;;;29.72;40.02;100743.66;5053455;28;46711;-47
2023/06/18 09:57:16;;;;;;;;;12.67;12.67;;;;;29.91;39.21;100731.94;5055287;28;45699;-46
2023/06/18 09:59:41;;;;;;;;;10.00;10.00;;;;;30.04;38.42;100725.66;5051814;28;45398;-47
2023/06/18 10:02:12;;;;;;;;;11.00;11.00;;;;;30.12;38.44;100736.41;5057983;28;45680;-45
2023/06/18 10:04:38;;;;;;;;;11.00;11.00;;;;;30.13;38.81;100735.38;5052157;28;46175;-47
2023/06/18 10:07:05;;;;;;;;;13.33;13.33;;;;;30.18;38.70;100738.34;5050066;28;45553;-46
2023/06/18 10:09:37;;;;;;;;;12.00;12.00;;;;;30.17;37.78;100733.91;5048611;28;45411;-53
2023/06/18 10:12:04;;;;;;;;;17.00;14.00;;;;;30.10;38.38;100727.53;5051200;28;45217;-52
2023/06/18 10:14:30;;;;;;;;;16.67;16.00;;;;;30.09;38.43;100731.38;5058237;28;45530;-52
2023/06/18 10:17:01;;;;;;;;;14.00;13.00;;;;;30.07;38.47;100738.09;5057649;28;45500;-51
2023/06/18 10:20:05;;;;;;;;;17.33;16.67;;;;;30.02;37.96;100738.72;5058612;28;45548;-45
2023/06/18 10:22:54;;;;;;;;;15.67;15.00;;;;;29.86;38.80;100728.94;4964400;28;45704;-47
2023/06/18 10:25:21;;;;;;;;;18.00;17.67;;;;;29.78;38.65;100735.44;4971252;28;45997;-46
2023/06/18 10:27:46;;;;;;;;;18.00;16.33;;;;;29.79;38.47;100728.06;5023323;28;45514;-45
2023/06/18 10:30:12;;;;;;;;;15.67;15.67;;;;;29.85;38.92;100727.25;5036355;28;45567;-46
2023/06/18 10:32:38;;;;;;;;;17.33;17.33;;;;;29.91;38.89;100726.47;5031132;28;45459;-46
2023/06/18 10:35:08;;;;;;;;;16.67;15.00;;;;;29.99;38.27;100723.53;5045522;28;45729;-50
2023/06/18 10:37:34;;;;;;;;;17.00;16.00;;;;;30.08;37.89;100721.44;5031512;28;45415;-48
2023/06/18 10:40:01;;;;;;;;;17.00;17.00;;;;;30.24;38.13;100713.88;5051530;28;45451;-47
2023/06/18 10:42:30;;;;;;;;;14.33;14.33;;;;;30.39;37.80;100714.53;5047115;28;45679;-46
2023/06/18 10:44:58;;;;;;;;;20.00;18.67;;;;;30.59;37.04;100717.28;5038837;28;45787;-45
2023/06/18 10:47:31;;;;;;;;;17.00;16.67;;;;;30.72;37.20;100708.22;5054359;28;46599;-46
2023/06/18 10:50:02;;;;;;;;;15.33;15.33;;;;;30.87;36.83;100709.88;5030775;28;45751;-46
2023/06/18 10:52:36;;;;;;;;;22.00;22.00;;;;;30.91;37.07;100700.16;5052229;28;45513;-46
2023/06/18 10:55:20;;;;;;;;;22.33;21.00;;;;;30.81;36.56;100700.63;5055721;28;45544;-52
2023/06/18 10:57:47;;;;;;;;;22.33;22.00;;;;;30.69;36.96;100686.69;5050336;28;45510;-51
2023/06/18 11:00:17;;;;;;;;;21.33;21.33;;;;;30.57;37.88;100689.22;5052604;28;45384;-53
2023/06/18 11:02:44;;;;;;;;;19.00;19.00;;;;;30.58;37.74;100692.81;5056999;28;45474;-51
2023/06/18 11:05:45;;;;;;;;;21.33;18.67;;;;;30.78;37.87;100690.91;5038485;28;46861;-51
2023/06/18 11:08:12;;;;;;;;;18.00;17.33;;;;;30.98;37.51;100685.38;5047760;28;45455;-51
2023/06/18 11:10:45;;;;;;;;;19.00;18.33;;;;;31.13;37.74;100684.28;5050946;28;45749;-51
2023/06/18 11:13:10;;;;;;;;;22.00;22.00;;;;;31.28;37.42;100675.81;5052455;28;45904;-51